createdAt,value
2019-05-22T00:00:23.614Z,0
2019-05-22T00:01:33.159Z,0.1
2019-05-22T00:02:42.667Z,0
2019-05-22T00:03:52.188Z,0.1
2019-05-22T00:05:01.741Z,0.1
2019-05-22T00:06:11.286Z,0.1
2019-05-22T00:07:20.803Z,0.1
2019-05-22T00:08:30.317Z,0
2019-05-22T00:09:39.818Z,0.1
2019-05-22T00:10:49.340Z,0.1
2019-05-22T00:11:58.878Z,0
2019-05-22T00:13:08.385Z,0.1
2019-05-22T00:14:17.899Z,0.1
2019-05-22T00:15:27.405Z,0.1
2019-05-22T00:16:36.965Z,0.1
2019-05-22T00:17:46.481Z,0.1
2019-05-22T00:18:55.983Z,0.1
2019-05-22T00:20:05.496Z,0.1
2019-05-22T00:21:15.086Z,0
2019-05-22T00:22:24.594Z,0.1
2019-05-22T00:23:34.113Z,0.2
2019-05-22T00:24:43.630Z,0
2019-05-22T00:25:53.136Z,0.1
2019-05-22T00:27:02.681Z,0.1
2019-05-22T00:28:12.201Z,0.1
2019-05-22T00:29:21.707Z,0.1
2019-05-22T00:30:31.217Z,0.1
2019-05-22T00:31:40.779Z,0.1
2019-05-22T00:32:50.283Z,0.1
2019-05-22T00:33:59.789Z,0
2019-05-22T00:35:09.318Z,0.1
2019-05-22T00:36:18.805Z,0.2
2019-05-22T00:37:28.354Z,0.1
2019-05-22T00:38:37.869Z,0.1
2019-05-22T00:39:47.379Z,0
2019-05-22T00:40:56.912Z,0.2
2019-05-22T00:42:06.462Z,0.1
2019-05-22T00:43:15.954Z,0.1
2019-05-22T00:44:25.476Z,0.1
2019-05-22T00:45:34.982Z,0.1
2019-05-22T00:46:44.498Z,0
2019-05-22T00:47:54.036Z,0.1
2019-05-22T00:49:03.540Z,0.1
2019-05-22T00:50:13.062Z,0.1
2019-05-22T00:51:22.576Z,0.1
2019-05-22T00:52:32.129Z,0.1
2019-05-22T00:53:41.641Z,0.1
2019-05-22T00:54:51.150Z,0.1
2019-05-22T00:56:00.654Z,0.1
2019-05-22T00:57:10.227Z,0.1
2019-05-22T00:58:19.744Z,0.1
2019-05-22T00:59:29.260Z,0
2019-05-22T01:00:38.757Z,0.1
2019-05-22T01:01:48.285Z,0
2019-05-22T01:02:57.807Z,0.1
2019-05-22T01:04:07.323Z,0
2019-05-22T01:05:16.833Z,0
2019-05-22T01:06:26.344Z,0.1
2019-05-22T01:07:35.924Z,0.1
2019-05-22T01:08:45.441Z,0.1
2019-05-22T01:09:54.990Z,0
2019-05-22T01:11:04.500Z,0.1
2019-05-22T01:12:13.993Z,0.1
2019-05-22T01:13:23.530Z,0.1
2019-05-22T01:14:42.211Z,0.1
2019-05-22T01:15:43.527Z,0
2019-05-22T01:16:53.041Z,0.1
2019-05-22T01:18:02.582Z,0
2019-05-22T01:19:12.090Z,0.1
2019-05-22T01:20:21.599Z,0.1
2019-05-22T01:21:31.110Z,0
2019-05-22T01:22:40.626Z,0.1
2019-05-22T01:23:50.171Z,0
2019-05-22T01:24:59.673Z,0.1
2019-05-22T01:26:09.191Z,0.1
2019-05-22T01:27:18.725Z,0.1
2019-05-22T01:28:28.289Z,0.1
2019-05-22T01:29:37.799Z,0.2
2019-05-22T01:30:47.309Z,0.2
2019-05-22T01:31:56.828Z,0.1
2019-05-22T01:33:06.341Z,0.1
2019-05-22T01:34:15.877Z,0.1
2019-05-22T01:35:25.386Z,0.1
2019-05-22T01:36:34.898Z,0.1
2019-05-22T01:37:44.406Z,0.2
2019-05-22T01:38:53.966Z,0.1
2019-05-22T01:40:03.488Z,0.2
2019-05-22T01:41:13.005Z,0.1
2019-05-22T01:42:22.514Z,0.1
2019-05-22T01:43:32.081Z,0
2019-05-22T01:44:41.604Z,0
2019-05-22T01:45:51.119Z,0.2
2019-05-22T01:47:00.636Z,0.1
2019-05-22T01:48:10.155Z,0.2
2019-05-22T01:49:19.686Z,0.1
2019-05-22T01:50:29.195Z,0.2
2019-05-22T01:51:38.695Z,0.1
2019-05-22T01:52:48.194Z,0
2019-05-22T01:53:57.773Z,0.1
2019-05-22T01:55:07.289Z,0
2019-05-22T01:56:16.815Z,0.1
2019-05-22T01:57:26.321Z,0.1
2019-05-22T01:58:35.851Z,0.1
2019-05-22T01:59:45.399Z,0.2
2019-05-22T02:00:54.911Z,0.1
2019-05-22T02:02:04.513Z,0.1
2019-05-22T02:03:14.959Z,0.2
2019-05-22T02:04:24.521Z,0.1
2019-05-22T02:05:34.025Z,0.1
2019-05-22T02:06:43.547Z,0.1
2019-05-22T02:07:53.054Z,0.2
2019-05-22T02:09:02.580Z,0.2
2019-05-22T02:10:12.133Z,0.2
2019-05-22T02:11:21.640Z,0.1
2019-05-22T02:12:31.159Z,0.3
2019-05-22T02:13:40.681Z,0.4
2019-05-22T02:14:50.223Z,0.3
2019-05-22T02:15:59.754Z,0
2019-05-22T02:17:09.261Z,0.2
2019-05-22T02:18:18.768Z,0.1
2019-05-22T02:19:28.286Z,0.2
2019-05-22T02:20:37.897Z,0.1
2019-05-22T02:21:47.434Z,0.1
2019-05-22T02:22:56.985Z,0.2
2019-05-22T02:24:06.456Z,0.2
2019-05-22T02:25:15.996Z,0.3
2019-05-22T02:26:25.510Z,0.1
2019-05-22T02:27:35.024Z,0.2
2019-05-22T02:28:44.557Z,0.2
2019-05-22T02:29:54.157Z,0.1
2019-05-22T02:31:03.681Z,0.2
2019-05-22T02:32:13.227Z,0.2
2019-05-22T02:33:22.717Z,0.4
2019-05-22T02:34:32.233Z,0.1
2019-05-22T02:35:41.764Z,0.3
2019-05-22T02:36:51.309Z,0.3
2019-05-22T02:38:00.819Z,0.1
2019-05-22T02:39:10.319Z,0.2
2019-05-22T02:40:19.867Z,0.2
2019-05-22T02:41:29.388Z,0.2
2019-05-22T02:42:38.906Z,0.2
2019-05-22T02:43:48.425Z,0.2
2019-05-22T02:44:57.941Z,0.1
2019-05-22T02:46:07.481Z,0.1
2019-05-22T02:47:20.292Z,0.2
2019-05-22T02:48:27.476Z,0.1
2019-05-22T02:49:37.012Z,0.2
2019-05-22T02:50:46.545Z,0.1
2019-05-22T02:51:56.081Z,0.1
2019-05-22T02:53:05.589Z,0.1
2019-05-22T02:54:15.101Z,0.1
2019-05-22T02:55:24.653Z,0.3
2019-05-22T02:56:34.205Z,0.1
2019-05-22T02:57:43.716Z,0.2
2019-05-22T02:58:53.243Z,0.1
2019-05-22T03:00:02.772Z,0.3
2019-05-22T03:01:12.307Z,0.2
2019-05-22T03:02:21.835Z,0.4
2019-05-22T03:03:31.405Z,0.1
2019-05-22T03:04:40.883Z,0.3
2019-05-22T03:05:50.541Z,0.4
2019-05-22T03:07:00.057Z,0.4
2019-05-22T03:08:09.573Z,0.3
2019-05-22T03:09:19.093Z,0.3
2019-05-22T03:10:28.628Z,0.2
2019-05-22T03:11:38.177Z,0.6
2019-05-22T03:12:47.670Z,0.4
2019-05-22T03:13:57.182Z,0.4
2019-05-22T03:15:06.694Z,0.3
2019-05-22T03:16:16.231Z,0.3
2019-05-22T03:17:25.737Z,0.3
2019-05-22T03:18:35.243Z,0.7
2019-05-22T03:19:44.747Z,0.5
2019-05-22T03:20:54.272Z,0.3
2019-05-22T03:22:03.811Z,0.3
2019-05-22T03:23:13.331Z,0.4
2019-05-22T03:24:22.838Z,0.4
2019-05-22T03:25:32.349Z,0.3
2019-05-22T03:26:41.894Z,0.3
2019-05-22T03:27:51.409Z,0.4
2019-05-22T03:29:00.923Z,0.6
2019-05-22T03:30:10.426Z,0.3
2019-05-22T03:31:20.005Z,0.4
2019-05-22T03:32:29.526Z,0.6
2019-05-22T03:33:39.065Z,0.4
2019-05-22T03:34:48.568Z,0.5
2019-05-22T03:35:58.072Z,0.7
2019-05-22T03:37:07.633Z,0.4
2019-05-22T03:38:17.154Z,0.4
2019-05-22T03:39:26.663Z,0.7
2019-05-22T03:40:36.176Z,0.2
2019-05-22T03:41:45.712Z,0.4
2019-05-22T03:42:55.272Z,0.4
2019-05-22T03:44:04.784Z,0.4
2019-05-22T03:45:14.358Z,0.3
2019-05-22T03:46:23.865Z,0.5
2019-05-22T03:47:33.399Z,0.3
2019-05-22T03:48:42.902Z,0.6
2019-05-22T03:49:52.415Z,0.4
2019-05-22T03:51:01.918Z,0.7
2019-05-22T03:52:11.455Z,0.5
2019-05-22T03:53:20.973Z,0.2
2019-05-22T03:54:30.475Z,0.6
2019-05-22T03:55:40.008Z,0.3
2019-05-22T03:56:49.577Z,0.3
2019-05-22T03:57:59.089Z,0.6
2019-05-22T03:59:08.607Z,0.5
2019-05-22T04:00:18.149Z,0.3
2019-05-22T04:01:27.675Z,0.2
2019-05-22T04:02:37.214Z,0.3
2019-05-22T04:03:46.751Z,0.5
2019-05-22T04:04:56.239Z,0.3
2019-05-22T04:06:05.776Z,0.2
2019-05-22T04:07:15.282Z,0.6
2019-05-22T04:08:24.791Z,0.4
2019-05-22T04:09:34.316Z,0.3
2019-05-22T04:10:43.836Z,0.3
2019-05-22T04:11:53.409Z,0.5
2019-05-22T04:13:02.912Z,0.5
2019-05-22T04:14:12.595Z,0.6
2019-05-22T04:15:22.058Z,0.5
2019-05-22T04:16:31.622Z,0.4
2019-05-22T04:17:41.185Z,0.2
2019-05-22T04:18:50.685Z,0.4
2019-05-22T04:20:00.198Z,0.4
2019-05-22T04:21:09.704Z,0.3
2019-05-22T04:22:19.309Z,0.4
2019-05-22T04:23:28.801Z,0.4
2019-05-22T04:24:38.301Z,0.4
2019-05-22T04:25:47.810Z,0.4
2019-05-22T04:26:57.348Z,0.3
2019-05-22T04:28:06.883Z,0.7
2019-05-22T04:29:16.401Z,0.7
2019-05-22T04:30:25.928Z,0.3
2019-05-22T04:31:35.454Z,0.5
2019-05-22T04:32:45.025Z,0.5
2019-05-22T04:33:54.541Z,0.6
2019-05-22T04:35:04.065Z,0.4
2019-05-22T04:36:13.543Z,0.8
2019-05-22T04:37:23.046Z,0.3
2019-05-22T04:38:32.577Z,0.9
2019-05-22T04:39:42.095Z,0.5
2019-05-22T04:40:51.613Z,0.5
2019-05-22T04:42:01.126Z,0.4
2019-05-22T04:43:10.675Z,0.6
2019-05-22T04:44:20.185Z,0.5
2019-05-22T04:45:29.782Z,0.8
2019-05-22T04:46:41.426Z,0.5
2019-05-22T04:47:50.804Z,0.5
2019-05-22T04:49:00.312Z,0.8
2019-05-22T04:50:09.797Z,0.3
2019-05-22T04:51:19.294Z,0.5
2019-05-22T04:52:28.820Z,0.5
2019-05-22T04:53:38.355Z,0.7
2019-05-22T04:54:47.863Z,0.3
2019-05-22T04:55:57.382Z,0.7
2019-05-22T04:57:06.893Z,0.7
2019-05-22T04:58:16.420Z,1
2019-05-22T04:59:25.914Z,0.7
2019-05-22T05:00:35.431Z,0.5
2019-05-22T05:01:44.949Z,0.5
2019-05-22T05:02:54.464Z,0.7
2019-05-22T05:04:04.016Z,0.4
2019-05-22T05:05:13.526Z,0.6
2019-05-22T05:06:23.044Z,0.6
2019-05-22T05:07:32.529Z,0.5
2019-05-22T05:08:42.067Z,0.6
2019-05-22T05:09:51.574Z,0.8
2019-05-22T05:11:01.092Z,0.6
2019-05-22T05:12:10.620Z,0.5
2019-05-22T05:13:20.311Z,0.5
2019-05-22T05:14:29.819Z,0.8
2019-05-22T05:15:39.326Z,0.4
2019-05-22T05:16:48.853Z,0.6
2019-05-22T05:17:58.359Z,0.4
2019-05-22T05:19:07.905Z,0.8
2019-05-22T05:20:22.309Z,1
2019-05-22T05:21:27.884Z,0.4
2019-05-22T05:22:37.402Z,0.8
2019-05-22T05:23:46.960Z,0.7
2019-05-22T05:24:56.456Z,0.7
2019-05-22T05:26:05.964Z,0.5
2019-05-22T05:27:15.475Z,0.7
2019-05-22T05:28:24.967Z,0.3
2019-05-22T05:29:34.506Z,0.6
2019-05-22T05:30:44.022Z,0.6
2019-05-22T05:31:53.542Z,0.5
2019-05-22T05:33:03.065Z,0.5
2019-05-22T05:34:12.602Z,0.7
2019-05-22T05:35:23.107Z,0.5
2019-05-22T05:36:32.618Z,0.4
2019-05-22T05:37:42.125Z,0.7
2019-05-22T05:38:51.698Z,0.6
2019-05-22T05:40:01.214Z,0.4
2019-05-22T05:41:10.727Z,0.5
2019-05-22T05:42:20.229Z,0.2
2019-05-22T05:43:29.753Z,0.4
2019-05-22T05:44:39.279Z,0.7
2019-05-22T05:45:48.796Z,0.7
2019-05-22T05:46:58.305Z,0.5
2019-05-22T05:48:07.846Z,0.6
2019-05-22T05:49:17.440Z,0.2
2019-05-22T05:50:38.714Z,0.4
2019-05-22T05:51:37.447Z,0.2
2019-05-22T05:52:46.975Z,0.7
2019-05-22T05:53:56.496Z,0.2
2019-05-22T05:55:06.037Z,0.6
2019-05-22T05:56:15.560Z,0.4
2019-05-22T05:57:25.087Z,0.3
2019-05-22T05:58:34.619Z,0.6
2019-05-22T05:59:44.157Z,0.5
2019-05-22T06:00:53.678Z,0.4
2019-05-22T06:02:03.197Z,0.7
2019-05-22T06:03:12.712Z,0.6
2019-05-22T06:04:33.889Z,0.8
2019-05-22T06:05:32.798Z,0.5
2019-05-22T06:06:42.330Z,0.7
2019-05-22T06:07:51.844Z,0.7
2019-05-22T06:09:01.358Z,0.9
2019-05-22T06:10:10.970Z,0.5
2019-05-22T06:11:20.477Z,0.6
2019-05-22T06:12:29.982Z,0.4
2019-05-22T06:13:39.493Z,0.4
2019-05-22T06:14:49.069Z,0.3
2019-05-22T06:15:58.598Z,0.7
2019-05-22T06:17:08.115Z,1.2
2019-05-22T06:18:17.648Z,0.5
2019-05-22T06:19:27.146Z,0.7
2019-05-22T06:20:36.713Z,0.6
2019-05-22T06:21:46.237Z,0.2
2019-05-22T06:22:55.741Z,0.8
2019-05-22T06:24:06.251Z,0.8
2019-05-22T06:25:15.803Z,1
2019-05-22T06:26:25.337Z,0.7
2019-05-22T06:27:34.842Z,0.6
2019-05-22T06:28:44.369Z,0.7
2019-05-22T06:29:53.887Z,0.8
2019-05-22T06:31:03.443Z,0.7
2019-05-22T06:32:12.949Z,0.6
2019-05-22T06:33:22.486Z,0.5
2019-05-22T06:34:32.048Z,0.8
2019-05-22T06:35:41.610Z,0.8
2019-05-22T06:36:51.121Z,0.7
2019-05-22T06:38:00.631Z,0.8
2019-05-22T06:39:10.165Z,0.6
2019-05-22T06:40:19.716Z,1.2
2019-05-22T06:41:29.229Z,0.6
2019-05-22T06:42:38.760Z,0.6
2019-05-22T06:43:48.277Z,0.6
2019-05-22T06:44:57.797Z,0.6
2019-05-22T06:46:07.343Z,1.2
2019-05-22T06:47:16.863Z,0.6
2019-05-22T06:48:26.382Z,0.8
2019-05-22T06:49:35.927Z,1.2
2019-05-22T06:50:48.670Z,0.7
2019-05-22T06:51:55.975Z,0.9
2019-05-22T06:53:09.626Z,0.4
2019-05-22T06:54:15.982Z,1.3
2019-05-22T06:55:25.550Z,0.7
2019-05-22T06:56:35.064Z,0.5
2019-05-22T06:57:44.593Z,0.9
2019-05-22T06:58:54.110Z,1
2019-05-22T07:00:14.433Z,0.7
2019-05-22T07:01:14.134Z,1
2019-05-22T07:02:23.660Z,0.8
2019-05-22T07:03:33.155Z,0.9
2019-05-22T07:04:42.683Z,0.7
2019-05-22T07:05:52.228Z,0.6
2019-05-22T07:07:01.899Z,0.6
2019-05-22T07:08:11.307Z,0.4
2019-05-22T07:09:20.828Z,0.8
2019-05-22T07:10:30.334Z,0.8
2019-05-22T07:11:39.882Z,1.2
2019-05-22T07:12:50.681Z,0.9
2019-05-22T07:13:59.891Z,0.7
2019-05-22T07:15:09.412Z,0.7
2019-05-22T07:16:18.949Z,0.6
2019-05-22T07:17:28.462Z,0.9
2019-05-22T07:18:37.974Z,0.5
2019-05-22T07:19:47.488Z,0.8
2019-05-22T07:20:57.080Z,0.8
2019-05-22T07:22:06.561Z,1.2
2019-05-22T07:23:16.092Z,0.8
2019-05-22T07:24:25.598Z,0.8
2019-05-22T07:25:35.114Z,0.8
2019-05-22T07:26:44.650Z,0.9
2019-05-22T07:27:54.158Z,0.8
2019-05-22T07:29:05.133Z,0.6
2019-05-22T07:30:14.194Z,0.7
2019-05-22T07:31:23.740Z,1
2019-05-22T07:32:33.253Z,0.6
2019-05-22T07:33:42.770Z,0.8
2019-05-22T07:34:52.327Z,0.6
2019-05-22T07:36:11.280Z,0.9
2019-05-22T07:37:12.368Z,1
2019-05-22T07:38:21.902Z,0.7
2019-05-22T07:39:31.431Z,0.6
2019-05-22T07:40:40.936Z,0.5
2019-05-22T07:41:50.490Z,1.2
2019-05-22T07:43:00.037Z,1.1
2019-05-22T07:44:09.564Z,0.7
2019-05-22T07:45:19.072Z,0.6
2019-05-22T07:46:30.888Z,0.8
2019-05-22T07:47:39.143Z,0.5
2019-05-22T07:48:48.654Z,0.5
2019-05-22T07:49:58.171Z,0.6
2019-05-22T07:51:07.732Z,0.4
2019-05-22T07:52:17.259Z,0.9
2019-05-22T07:53:26.766Z,0.8
2019-05-22T07:54:36.294Z,0.8
2019-05-22T07:55:45.813Z,0.7
2019-05-22T07:56:55.364Z,0.8
2019-05-22T07:58:04.880Z,0.6
2019-05-22T07:59:14.404Z,0.6
2019-05-22T08:00:23.930Z,1
2019-05-22T08:01:33.483Z,0.5
2019-05-22T08:02:42.999Z,0.8
2019-05-22T08:03:52.517Z,0.5
2019-05-22T08:05:02.038Z,0.8
2019-05-22T08:06:11.707Z,0.6
2019-05-22T08:07:21.211Z,0.4
2019-05-22T08:08:30.734Z,0.6
2019-05-22T08:09:40.265Z,0.6
2019-05-22T08:10:49.806Z,0.8
2019-05-22T08:11:59.347Z,0.7
2019-05-22T08:13:08.860Z,0.8
2019-05-22T08:14:18.357Z,0.8
2019-05-22T08:15:27.896Z,1.2
2019-05-22T08:16:37.455Z,0.5
2019-05-22T08:17:46.976Z,0.6
2019-05-22T08:18:56.491Z,0.9
2019-05-22T08:20:06.012Z,0.9
2019-05-22T08:21:15.556Z,0.4
2019-05-22T08:22:25.126Z,0.8
2019-05-22T08:23:34.642Z,0.5
2019-05-22T08:24:44.164Z,0.4
2019-05-22T08:25:53.675Z,0.7
2019-05-22T08:27:03.217Z,0.8
2019-05-22T08:28:12.729Z,0.5
2019-05-22T08:29:22.253Z,0.5
2019-05-22T08:30:31.798Z,0.8
2019-05-22T08:31:41.345Z,0.9
2019-05-22T08:32:50.870Z,0.6
2019-05-22T08:34:00.436Z,0.5
2019-05-22T08:35:09.976Z,0.7
2019-05-22T08:36:20.484Z,0.7
2019-05-22T08:37:30.029Z,0.4
2019-05-22T08:38:39.582Z,0.7
2019-05-22T08:39:49.088Z,0.8
2019-05-22T08:40:58.628Z,0.6
2019-05-22T08:42:08.196Z,0.7
2019-05-22T08:43:17.708Z,0.8
2019-05-22T08:44:27.230Z,1.1
2019-05-22T08:45:36.832Z,1.1
2019-05-22T08:46:46.433Z,0.7
2019-05-22T08:47:55.855Z,0.6
2019-05-22T08:49:05.412Z,0.8
2019-05-22T08:50:14.916Z,0.7
2019-05-22T08:51:24.437Z,1
2019-05-22T08:52:33.989Z,0.6
2019-05-22T08:53:47.816Z,0.5
2019-05-22T08:54:53.999Z,0.6
2019-05-22T08:56:03.532Z,0.9
2019-05-22T08:57:13.095Z,0.5
2019-05-22T08:58:22.605Z,0.8
2019-05-22T08:59:32.122Z,0.4
2019-05-22T09:00:41.712Z,0.5
2019-05-22T09:01:51.258Z,0.7
2019-05-22T09:03:00.775Z,0.6
2019-05-22T09:04:10.290Z,0.6
2019-05-22T09:05:21.378Z,0.9
2019-05-22T09:06:30.317Z,0.6
2019-05-22T09:07:39.865Z,0.5
2019-05-22T09:08:49.390Z,1.4
2019-05-22T09:09:58.905Z,0.5
2019-05-22T09:11:08.433Z,0.9
2019-05-22T09:12:17.971Z,0.3
2019-05-22T09:13:27.492Z,0.6
2019-05-22T09:14:37.002Z,0.8
2019-05-22T09:15:46.531Z,0.6
2019-05-22T09:16:56.118Z,0.7
2019-05-22T09:18:05.613Z,0.8
2019-05-22T09:19:15.263Z,0.5
2019-05-22T09:20:24.729Z,0.7
2019-05-22T09:21:34.235Z,1
2019-05-22T09:22:43.762Z,0.7
2019-05-22T09:23:53.275Z,0.8
2019-05-22T09:25:03.336Z,0.6
2019-05-22T09:26:12.342Z,0.7
2019-05-22T09:27:21.907Z,0.6
2019-05-22T09:28:31.428Z,1
2019-05-22T09:29:40.953Z,0.5
2019-05-22T09:30:50.474Z,0.7
2019-05-22T09:31:59.997Z,0.9
2019-05-22T09:33:09.556Z,0.7
2019-05-22T09:34:19.065Z,0.6
2019-05-22T09:35:28.595Z,0.6
2019-05-22T09:36:38.126Z,0.6
2019-05-22T09:37:47.670Z,0.6
2019-05-22T09:38:57.196Z,0.4
2019-05-22T09:40:06.707Z,0.6
2019-05-22T09:41:16.226Z,0.7
2019-05-22T09:42:25.794Z,0.6
2019-05-22T09:43:35.307Z,0.6
2019-05-22T09:44:44.831Z,0.8
2019-05-22T09:45:54.360Z,0.8
2019-05-22T09:47:03.893Z,0.5
2019-05-22T09:48:13.438Z,0.6
2019-05-22T09:49:23.980Z,0.5
2019-05-22T09:50:33.461Z,0.6
2019-05-22T09:51:42.973Z,0.5
2019-05-22T09:52:57.354Z,0.6
2019-05-22T09:54:02.985Z,0.7
2019-05-22T09:55:12.484Z,0.5
2019-05-22T09:56:22.035Z,0.5
2019-05-22T09:57:31.550Z,0.5
2019-05-22T09:58:41.127Z,0.5
2019-05-22T09:59:50.583Z,0.5
2019-05-22T10:01:00.097Z,0.5
2019-05-22T10:02:09.645Z,0.8
2019-05-22T10:03:19.200Z,0.4
2019-05-22T10:04:28.712Z,0.7
2019-05-22T10:05:39.302Z,0.5
2019-05-22T10:06:48.733Z,0.7
2019-05-22T10:08:01.220Z,0.8
2019-05-22T10:09:08.752Z,0.9
2019-05-22T10:10:18.318Z,0.5
2019-05-22T10:11:27.831Z,0.7
2019-05-22T10:12:37.368Z,0.4
2019-05-22T10:13:46.983Z,0.6
2019-05-22T10:14:56.415Z,0.6
2019-05-22T10:16:05.925Z,0.6
2019-05-22T10:17:15.437Z,0.6
2019-05-22T10:18:24.977Z,0.8
2019-05-22T10:19:34.496Z,0.7
2019-05-22T10:20:44.009Z,0.6
2019-05-22T10:21:53.525Z,1.1
2019-05-22T10:23:14.476Z,0.9
2019-05-22T10:24:13.549Z,0.8
2019-05-22T10:25:23.052Z,0.6
2019-05-22T10:26:32.582Z,1.2
2019-05-22T10:27:42.125Z,0.9
2019-05-22T10:28:51.666Z,1.2
2019-05-22T10:30:01.204Z,0.8
2019-05-22T10:31:12.017Z,0.7
2019-05-22T10:32:21.266Z,1
2019-05-22T10:33:30.815Z,0.5
2019-05-22T10:34:40.357Z,0.5
2019-05-22T10:35:49.865Z,1
2019-05-22T10:36:59.378Z,1
2019-05-22T10:38:08.939Z,1
2019-05-22T10:39:18.448Z,0.7
2019-05-22T10:40:27.961Z,0.9
2019-05-22T10:41:37.480Z,1.1
2019-05-22T10:42:47.019Z,0.5
2019-05-22T10:43:56.534Z,0.8
2019-05-22T10:45:06.064Z,0.8
2019-05-22T10:46:15.634Z,1
2019-05-22T10:47:25.131Z,1.2
2019-05-22T10:48:34.662Z,0.8
2019-05-22T10:49:44.188Z,1
2019-05-22T10:50:53.733Z,0.9
2019-05-22T10:52:03.298Z,1.2
2019-05-22T10:53:12.792Z,1
2019-05-22T10:54:22.315Z,0.7
2019-05-22T10:55:31.825Z,1
2019-05-22T10:56:41.346Z,0.4
2019-05-22T10:57:50.992Z,1.1
2019-05-22T10:59:01.614Z,0.8
2019-05-22T11:00:10.934Z,1
2019-05-22T11:01:20.450Z,1
2019-05-22T11:02:29.970Z,1.2
2019-05-22T11:03:39.511Z,0.7
2019-05-22T11:04:49.032Z,1
2019-05-22T11:06:06.881Z,0.6
2019-05-22T11:07:09.032Z,1.5
2019-05-22T11:08:18.593Z,0.9
2019-05-22T11:09:28.123Z,0.9
2019-05-22T11:10:37.645Z,0.8
2019-05-22T11:11:47.164Z,1
2019-05-22T11:12:56.858Z,0.8
2019-05-22T11:14:09.425Z,0.5
2019-05-22T11:15:16.874Z,0.7
2019-05-22T11:16:26.386Z,0.8
2019-05-22T11:17:35.907Z,1
2019-05-22T11:18:45.442Z,1
2019-05-22T11:19:54.950Z,1.1
2019-05-22T11:21:04.457Z,1.2
2019-05-22T11:22:13.983Z,0.9
2019-05-22T11:23:23.520Z,0.8
2019-05-22T11:24:33.049Z,0.9
2019-05-22T11:25:42.570Z,0.8
2019-05-22T11:26:52.082Z,1.1
2019-05-22T11:28:01.646Z,0.7
2019-05-22T11:29:11.174Z,1.1
2019-05-22T11:30:20.705Z,0.8
2019-05-22T11:31:30.203Z,0.5
2019-05-22T11:32:39.706Z,0.7
2019-05-22T11:33:49.255Z,0.7
2019-05-22T11:34:58.853Z,0.6
2019-05-22T11:36:08.360Z,0.7
2019-05-22T11:37:17.889Z,0.9
2019-05-22T11:38:27.431Z,0.7
2019-05-22T11:39:39.713Z,0.7
2019-05-22T11:40:47.431Z,0.8
2019-05-22T11:41:56.952Z,0.5
2019-05-22T11:43:06.628Z,0.8
2019-05-22T11:44:16.141Z,0.7
2019-05-22T11:45:25.659Z,1.1
2019-05-22T11:46:35.174Z,0.7
2019-05-22T11:47:44.684Z,0.9
2019-05-22T11:48:55.224Z,0.7
2019-05-22T11:50:04.752Z,0.9
2019-05-22T11:51:14.327Z,0.8
2019-05-22T11:52:23.842Z,0.8
2019-05-22T11:53:33.398Z,0.6
2019-05-22T11:54:42.921Z,0.7
2019-05-22T11:55:52.462Z,0.7
2019-05-22T11:57:01.976Z,0.9
2019-05-22T11:58:11.571Z,0.7
2019-05-22T11:59:21.096Z,1
2019-05-22T12:00:30.615Z,0.7
2019-05-22T12:01:40.130Z,0.7
2019-05-22T12:02:49.678Z,0.9
2019-05-22T12:03:59.205Z,0.7
2019-05-22T12:05:08.714Z,1
2019-05-22T12:06:18.226Z,0.7
2019-05-22T12:07:27.753Z,0.9
2019-05-22T12:08:37.290Z,0.8
2019-05-22T12:09:46.795Z,1
2019-05-22T12:10:56.312Z,1.3
2019-05-22T12:12:05.832Z,1
2019-05-22T12:13:15.373Z,0.8
2019-05-22T12:14:24.923Z,1
2019-05-22T12:15:34.481Z,0.7
2019-05-22T12:16:43.956Z,0.9
2019-05-22T12:17:53.513Z,1.1
2019-05-22T12:19:03.100Z,1
2019-05-22T12:20:12.619Z,0.9
2019-05-22T12:21:22.158Z,1.1
2019-05-22T12:22:31.678Z,1
2019-05-22T12:23:41.223Z,0.8
2019-05-22T12:24:50.744Z,0.8
2019-05-22T12:26:00.257Z,0.7
2019-05-22T12:27:09.766Z,0.9
2019-05-22T12:28:19.289Z,0.5
2019-05-22T12:29:28.848Z,0.7
2019-05-22T12:30:38.363Z,0.8
2019-05-22T12:31:47.903Z,1.2
2019-05-22T12:32:57.439Z,0.8
2019-05-22T12:34:06.992Z,0.7
2019-05-22T12:35:16.505Z,0.6
2019-05-22T12:36:26.034Z,1.2
2019-05-22T12:37:35.551Z,1.1
2019-05-22T12:38:45.282Z,0.9
2019-05-22T12:39:54.623Z,0.9
2019-05-22T12:41:04.154Z,0.8
2019-05-22T12:42:13.666Z,0.9
2019-05-22T12:43:23.181Z,1.1
2019-05-22T12:44:32.724Z,1.2
2019-05-22T12:45:42.252Z,0.9
2019-05-22T12:46:51.773Z,0.6
2019-05-22T12:48:01.333Z,0.9
2019-05-22T12:49:10.890Z,0.5
2019-05-22T12:50:20.414Z,0.8
2019-05-22T12:51:29.947Z,0.8
2019-05-22T12:52:39.513Z,0.9
2019-05-22T12:53:49.121Z,0.9
2019-05-22T12:54:58.573Z,0.9
2019-05-22T12:56:08.112Z,0.6
2019-05-22T12:57:17.625Z,0.8
2019-05-22T12:58:27.146Z,0.9
2019-05-22T12:59:36.707Z,0.7
2019-05-22T13:00:46.254Z,0.8
2019-05-22T13:01:55.758Z,0.9
2019-05-22T13:03:05.275Z,0.8
2019-05-22T13:04:14.804Z,0.6
2019-05-22T13:05:24.316Z,1
2019-05-22T13:06:33.847Z,0.7
2019-05-22T13:07:43.351Z,0.8
2019-05-22T13:08:52.888Z,0.7
2019-05-22T13:10:02.412Z,1
2019-05-22T13:11:11.909Z,1
2019-05-22T13:12:21.439Z,0.9
2019-05-22T13:13:30.969Z,0.5
2019-05-22T13:14:40.489Z,1.3
2019-05-22T13:15:50.013Z,1.1
2019-05-22T13:16:59.554Z,1
2019-05-22T13:18:09.101Z,0.9
2019-05-22T13:19:18.643Z,0.6
2019-05-22T13:20:41.635Z,1
2019-05-22T13:21:38.637Z,0.9
2019-05-22T13:22:48.146Z,0.7
2019-05-22T13:23:57.714Z,0.6
2019-05-22T13:25:07.229Z,0.7
2019-05-22T13:26:16.746Z,0.5
2019-05-22T13:27:26.317Z,1
2019-05-22T13:28:35.846Z,1
2019-05-22T13:29:45.400Z,0.8
2019-05-22T13:30:54.907Z,1
2019-05-22T13:32:04.419Z,0.4
2019-05-22T13:33:13.947Z,0.7
2019-05-22T13:34:23.485Z,1.3
2019-05-22T13:35:33.029Z,1
2019-05-22T13:36:42.540Z,0.9
2019-05-22T13:37:52.068Z,0.6
2019-05-22T13:39:01.969Z,0.8
2019-05-22T13:40:26.418Z,0.7
2019-05-22T13:41:21.654Z,0.9
2019-05-22T13:42:31.182Z,0.7
2019-05-22T13:43:40.709Z,1.1
2019-05-22T13:44:50.253Z,0.7
2019-05-22T13:45:59.758Z,0.6
2019-05-22T13:47:09.305Z,0.6
2019-05-22T13:48:18.831Z,1.1
2019-05-22T13:49:28.364Z,0.7
2019-05-22T13:50:37.888Z,0.9
2019-05-22T13:51:47.408Z,0.9
2019-05-22T13:52:56.933Z,1
2019-05-22T13:54:06.452Z,0.7
2019-05-22T13:55:15.987Z,0.7
2019-05-22T13:56:25.820Z,0.6
2019-05-22T13:57:34.986Z,0.8
2019-05-22T13:58:44.502Z,0.6
2019-05-22T13:59:54.043Z,0.8
2019-05-22T14:01:03.554Z,0.9
2019-05-22T14:02:13.068Z,0.8
2019-05-22T14:03:22.568Z,0.9
2019-05-22T14:04:32.130Z,1.1
2019-05-22T14:05:41.634Z,0.8
2019-05-22T14:06:51.142Z,0.8
2019-05-22T14:08:00.669Z,0.9
2019-05-22T14:09:10.182Z,1
2019-05-22T14:10:19.719Z,0.7
2019-05-22T14:11:29.227Z,0.9
2019-05-22T14:12:38.738Z,0.8
2019-05-22T14:13:48.277Z,1.1
2019-05-22T14:14:57.802Z,0.7
2019-05-22T14:16:07.324Z,1.2
2019-05-22T14:17:16.866Z,1.1
2019-05-22T14:18:26.379Z,1
2019-05-22T14:19:35.917Z,0.9
2019-05-22T14:20:45.620Z,0.9
2019-05-22T14:21:55.046Z,0.8
2019-05-22T14:23:04.556Z,1
2019-05-22T14:24:14.057Z,0.9
2019-05-22T14:25:23.603Z,1.4
2019-05-22T14:26:33.112Z,0.9
2019-05-22T14:27:42.590Z,1.2
2019-05-22T14:28:52.105Z,0.8
2019-05-22T14:30:01.680Z,1
2019-05-22T14:31:11.175Z,1.8
2019-05-22T14:32:20.691Z,1
2019-05-22T14:33:30.196Z,1
2019-05-22T14:34:39.753Z,1.5
2019-05-22T14:35:49.665Z,0.8
2019-05-22T14:36:58.758Z,1.2
2019-05-22T14:38:08.272Z,1
2019-05-22T14:39:17.779Z,0.7
2019-05-22T14:40:27.316Z,1.2
2019-05-22T14:41:36.815Z,1.2
2019-05-22T14:42:46.571Z,0.8
2019-05-22T14:43:56.080Z,0.7
2019-05-22T14:45:05.730Z,1.1
2019-05-22T14:46:15.245Z,1.2
2019-05-22T14:47:24.750Z,1
2019-05-22T14:48:34.257Z,1.4
2019-05-22T14:49:43.769Z,1.3
2019-05-22T14:50:53.300Z,1.3
2019-05-22T14:52:02.870Z,0.9
2019-05-22T14:53:12.333Z,0.9
2019-05-22T14:54:21.839Z,1.5
2019-05-22T14:55:31.522Z,1.4
2019-05-22T14:56:41.045Z,1
2019-05-22T14:57:50.563Z,1.1
2019-05-22T14:59:00.072Z,1.1
2019-05-22T15:00:09.593Z,1.1
2019-05-22T15:01:19.137Z,1.1
2019-05-22T15:02:28.632Z,0.7
2019-05-22T15:03:38.160Z,0.9
2019-05-22T15:04:47.677Z,1
2019-05-22T15:05:57.209Z,1
2019-05-22T15:07:06.718Z,0.9
2019-05-22T15:08:16.230Z,1
2019-05-22T15:09:25.738Z,0.8
2019-05-22T15:10:35.251Z,1
2019-05-22T15:11:44.792Z,1.1
2019-05-22T15:12:54.310Z,0.8
2019-05-22T15:14:03.823Z,1.2
2019-05-22T15:15:13.331Z,1
2019-05-22T15:16:22.893Z,0.8
2019-05-22T15:17:33.209Z,0.9
2019-05-22T15:18:41.893Z,0.8
2019-05-22T15:19:51.477Z,0.9
2019-05-22T15:21:00.917Z,0.8
2019-05-22T15:22:10.489Z,0.6
2019-05-22T15:23:19.975Z,0.9
2019-05-22T15:24:29.475Z,0.8
2019-05-22T15:25:38.987Z,0.6
2019-05-22T15:26:48.529Z,0.8
2019-05-22T15:27:58.039Z,0.9
2019-05-22T15:29:07.556Z,0.7
2019-05-22T15:30:17.219Z,0.8
2019-05-22T15:31:26.729Z,0.9
2019-05-22T15:32:36.233Z,1
2019-05-22T15:33:45.740Z,0.9
2019-05-22T15:34:55.266Z,0.6
2019-05-22T15:36:06.681Z,1.1
2019-05-22T15:37:15.302Z,0.8
2019-05-22T15:38:24.830Z,1
2019-05-22T15:39:34.352Z,0.9
2019-05-22T15:40:43.910Z,0.6
2019-05-22T15:41:53.484Z,0.7
2019-05-22T15:43:02.927Z,0.6
2019-05-22T15:44:12.444Z,0.8
2019-05-22T15:45:21.959Z,0.5
2019-05-22T15:46:31.493Z,1
2019-05-22T15:47:53.010Z,1
2019-05-22T15:48:51.505Z,0.7
2019-05-22T15:50:01.001Z,1.5
2019-05-22T15:51:10.543Z,0.8
2019-05-22T15:52:20.056Z,0.8
2019-05-22T15:53:29.563Z,0.9
2019-05-22T15:54:39.078Z,0.8
2019-05-22T15:55:48.597Z,0.6
2019-05-22T15:56:58.134Z,1.1
2019-05-22T15:58:07.659Z,0.9
2019-05-22T15:59:17.157Z,0.8
2019-05-22T16:00:26.669Z,0.6
2019-05-22T16:01:36.245Z,1
2019-05-22T16:02:45.762Z,0.6
2019-05-22T16:03:55.281Z,1